sensor_id;sensor_type;location;lat;lon;timestamp;P1;durP1;ratioP1;P2;durP2;ratioP2
5014;SDS011;2526;51.060;4.228;2023-06-14T00:01:00;9.73;;;3.45;;
5014;SDS011;2526;51.060;4.228;2023-06-14T00:03:28;4.72;;;2.75;;
5014;SDS011;2526;51.060;4.228;2023-06-14T00:05:54;4.53;;;3.15;;
5014;SDS011;2526;51.060;4.228;2023-06-14T00:08:19;11.88;;;3.17;;
5014;SDS011;2526;51.060;4.228;2023-06-14T00:10:46;4.63;;;2.50;;
5014;SDS011;2526;51.060;4.228;2023-06-14T00:13:12;3.83;;;2.72;;
5014;SDS011;2526;51.060;4.228;2023-06-14T00:15:37;4.13;;;2.40;;
5014;SDS011;2526;51.060;4.228;2023-06-14T00:18:03;6.53;;;3.05;;
5014;SDS011;2526;51.060;4.228;2023-06-14T00:20:29;5.57;;;3.47;;
5014;SDS011;2526;51.060;4.228;2023-06-14T00:22:56;4.65;;;2.90;;
5014;SDS011;2526;51.060;4.228;2023-06-14T00:25:23;4.60;;;2.15;;
5014;SDS011;2526;51.060;4.228;2023-06-14T00:27:50;5.30;;;2.45;;
5014;SDS011;2526;51.060;4.228;2023-06-14T00:30:16;2.92;;;2.55;;
5014;SDS011;2526;51.060;4.228;2023-06-14T00:32:41;4.63;;;2.88;;
5014;SDS011;2526;51.060;4.228;2023-06-14T00:35:08;5.82;;;3.50;;
5014;SDS011;2526;51.060;4.228;2023-06-14T00:37:33;4.97;;;3.08;;
5014;SDS011;2526;51.060;4.228;2023-06-14T00:39:59;4.00;;;2.45;;
5014;SDS011;2526;51.060;4.228;2023-06-14T00:42:25;4.15;;;2.15;;
5014;SDS011;2526;51.060;4.228;2023-06-14T00:44:50;4.78;;;3.08;;
5014;SDS011;2526;51.060;4.228;2023-06-14T00:47:16;8.15;;;3.70;;
5014;SDS011;2526;51.060;4.228;2023-06-14T00:49:41;8.93;;;4.03;;
5014;SDS011;2526;51.060;4.228;2023-06-14T00:52:07;12.77;;;3.05;;
5014;SDS011;2526;51.060;4.228;2023-06-14T00:54:32;3.80;;;2.33;;
5014;SDS011;2526;51.060;4.228;2023-06-14T00:56:58;10.48;;;2.65;;
5014;SDS011;2526;51.060;4.228;2023-06-14T00:59:23;3.45;;;3.15;;
5014;SDS011;2526;51.060;4.228;2023-06-14T01:01:49;7.47;;;2.70;;
5014;SDS011;2526;51.060;4.228;2023-06-14T01:04:15;3.28;;;2.65;;
5014;SDS011;2526;51.060;4.228;2023-06-14T01:09:33;3.13;;;1.95;;
5014;SDS011;2526;51.060;4.228;2023-06-14T01:12:04;2.97;;;2.17;;
5014;SDS011;2526;51.060;4.228;2023-06-14T01:14:32;5.25;;;3.33;;
5014;SDS011;2526;51.060;4.228;2023-06-14T01:17:00;4.53;;;2.75;;
5014;SDS011;2526;51.060;4.228;2023-06-14T01:19:27;3.55;;;2.75;;
5014;SDS011;2526;51.060;4.228;2023-06-14T01:21:53;4.15;;;2.45;;
5014;SDS011;2526;51.060;4.228;2023-06-14T01:24:20;5.97;;;2.72;;
5014;SDS011;2526;51.060;4.228;2023-06-14T01:26:52;5.25;;;3.25;;
5014;SDS011;2526;51.060;4.228;2023-06-14T01:29:21;5.18;;;2.83;;
5014;SDS011;2526;51.060;4.228;2023-06-14T01:31:47;5.35;;;2.40;;
5014;SDS011;2526;51.060;4.228;2023-06-14T01:34:14;3.28;;;2.33;;
5014;SDS011;2526;51.060;4.228;2023-06-14T01:36:40;3.47;;;2.53;;
5014;SDS011;2526;51.060;4.228;2023-06-14T01:39:06;3.97;;;2.55;;
5014;SDS011;2526;51.060;4.228;2023-06-14T01:41:32;4.63;;;2.92;;
5014;SDS011;2526;51.060;4.228;2023-06-14T01:43:58;3.97;;;3.35;;
5014;SDS011;2526;51.060;4.228;2023-06-14T01:46:24;4.38;;;2.75;;
5014;SDS011;2526;51.060;4.228;2023-06-14T01:48:50;4.88;;;2.35;;
5014;SDS011;2526;51.060;4.228;2023-06-14T01:51:15;6.28;;;3.78;;
5014;SDS011;2526;51.060;4.228;2023-06-14T01:53:41;5.10;;;2.88;;
5014;SDS011;2526;51.060;4.228;2023-06-14T01:56:07;4.53;;;3.10;;
5014;SDS011;2526;51.060;4.228;2023-06-14T01:58:32;5.25;;;3.45;;
5014;SDS011;2526;51.060;4.228;2023-06-14T02:00:58;4.00;;;2.75;;
5014;SDS011;2526;51.060;4.228;2023-06-14T02:03:25;5.32;;;3.45;;
5014;SDS011;2526;51.060;4.228;2023-06-14T02:05:51;6.82;;;3.38;;
5014;SDS011;2526;51.060;4.228;2023-06-14T02:08:17;6.55;;;3.80;;
5014;SDS011;2526;51.060;4.228;2023-06-14T02:10:42;4.70;;;2.92;;
5014;SDS011;2526;51.060;4.228;2023-06-14T02:13:08;5.95;;;3.35;;
5014;SDS011;2526;51.060;4.228;2023-06-14T02:15:34;5.03;;;2.90;;
5014;SDS011;2526;51.060;4.228;2023-06-14T02:18:01;4.18;;;2.83;;
5014;SDS011;2526;51.060;4.228;2023-06-14T02:20:27;6.03;;;3.53;;
5014;SDS011;2526;51.060;4.228;2023-06-14T02:22:53;7.95;;;3.88;;
5014;SDS011;2526;51.060;4.228;2023-06-14T02:25:18;5.07;;;3.50;;
5014;SDS011;2526;51.060;4.228;2023-06-14T02:27:44;5.22;;;3.65;;
5014;SDS011;2526;51.060;4.228;2023-06-14T02:30:09;8.00;;;3.17;;
5014;SDS011;2526;51.060;4.228;2023-06-14T02:32:35;5.88;;;3.08;;
5014;SDS011;2526;51.060;4.228;2023-06-14T02:35:01;7.38;;;4.15;;
5014;SDS011;2526;51.060;4.228;2023-06-14T02:37:26;3.80;;;3.00;;
5014;SDS011;2526;51.060;4.228;2023-06-14T02:39:51;4.60;;;2.75;;
5014;SDS011;2526;51.060;4.228;2023-06-14T02:42:17;4.28;;;2.95;;
5014;SDS011;2526;51.060;4.228;2023-06-14T02:44:42;7.68;;;3.72;;
5014;SDS011;2526;51.060;4.228;2023-06-14T02:47:08;3.80;;;2.50;;
5014;SDS011;2526;51.060;4.228;2023-06-14T02:49:34;4.35;;;2.78;;
5014;SDS011;2526;51.060;4.228;2023-06-14T02:51:59;10.95;;;3.30;;
5014;SDS011;2526;51.060;4.228;2023-06-14T02:54:25;9.70;;;3.67;;
5014;SDS011;2526;51.060;4.228;2023-06-14T02:56:50;9.38;;;2.90;;
5014;SDS011;2526;51.060;4.228;2023-06-14T02:59:16;6.07;;;3.20;;
5014;SDS011;2526;51.060;4.228;2023-06-14T03:01:42;4.15;;;2.80;;
5014;SDS011;2526;51.060;4.228;2023-06-14T03:04:08;3.90;;;3.20;;
5014;SDS011;2526;51.060;4.228;2023-06-14T03:06:33;5.15;;;3.30;;
5014;SDS011;2526;51.060;4.228;2023-06-14T03:08:59;5.70;;;2.30;;
5014;SDS011;2526;51.060;4.228;2023-06-14T03:11:25;4.45;;;2.38;;
5014;SDS011;2526;51.060;4.228;2023-06-14T03:13:51;8.55;;;2.30;;
5014;SDS011;2526;51.060;4.228;2023-06-14T03:16:17;3.47;;;2.63;;
5014;SDS011;2526;51.060;4.228;2023-06-14T03:18:45;5.05;;;2.67;;
5014;SDS011;2526;51.060;4.228;2023-06-14T03:21:10;9.63;;;2.60;;
5014;SDS011;2526;51.060;4.228;2023-06-14T03:23:36;4.03;;;2.33;;
5014;SDS011;2526;51.060;4.228;2023-06-14T03:26:02;2.58;;;1.90;;
5014;SDS011;2526;51.060;4.228;2023-06-14T03:28:27;6.30;;;3.10;;
5014;SDS011;2526;51.060;4.228;2023-06-14T03:30:53;4.15;;;2.53;;
5014;SDS011;2526;51.060;4.228;2023-06-14T03:33:18;5.53;;;2.63;;
5014;SDS011;2526;51.060;4.228;2023-06-14T03:35:44;6.38;;;2.83;;
5014;SDS011;2526;51.060;4.228;2023-06-14T03:38:09;4.75;;;2.97;;
5014;SDS011;2526;51.060;4.228;2023-06-14T03:40:35;4.28;;;3.10;;
5014;SDS011;2526;51.060;4.228;2023-06-14T03:43:00;7.95;;;2.55;;
5014;SDS011;2526;51.060;4.228;2023-06-14T03:45:26;6.00;;;2.78;;
5014;SDS011;2526;51.060;4.228;2023-06-14T03:47:51;3.88;;;2.35;;
5014;SDS011;2526;51.060;4.228;2023-06-14T03:50:17;7.32;;;2.60;;
5014;SDS011;2526;51.060;4.228;2023-06-14T03:52:43;6.45;;;3.42;;
5014;SDS011;2526;51.060;4.228;2023-06-14T03:55:09;3.95;;;2.95;;
5014;SDS011;2526;51.060;4.228;2023-06-14T03:57:35;2.67;;;2.08;;
5014;SDS011;2526;51.060;4.228;2023-06-14T04:00:00;4.15;;;2.80;;
5014;SDS011;2526;51.060;4.228;2023-06-14T04:02:26;5.60;;;2.35;;
5014;SDS011;2526;51.060;4.228;2023-06-14T04:04:54;4.75;;;2.95;;
5014;SDS011;2526;51.060;4.228;2023-06-14T04:07:19;5.03;;;3.15;;
5014;SDS011;2526;51.060;4.228;2023-06-14T04:09:45;4.68;;;2.65;;
5014;SDS011;2526;51.060;4.228;2023-06-14T04:12:11;5.63;;;2.72;;
5014;SDS011;2526;51.060;4.228;2023-06-14T04:14:37;6.30;;;3.05;;
5014;SDS011;2526;51.060;4.228;2023-06-14T04:17:02;2.75;;;1.98;;
5014;SDS011;2526;51.060;4.228;2023-06-14T04:19:28;5.63;;;2.60;;
5014;SDS011;2526;51.060;4.228;2023-06-14T04:21:53;5.50;;;2.75;;
5014;SDS011;2526;51.060;4.228;2023-06-14T04:24:19;4.45;;;2.72;;
5014;SDS011;2526;51.060;4.228;2023-06-14T04:26:45;4.97;;;2.40;;
5014;SDS011;2526;51.060;4.228;2023-06-14T04:29:14;4.57;;;2.65;;
5014;SDS011;2526;51.060;4.228;2023-06-14T04:31:44;2.90;;;2.10;;
5014;SDS011;2526;51.060;4.228;2023-06-14T04:34:10;3.13;;;1.95;;
5014;SDS011;2526;51.060;4.228;2023-06-14T04:36:42;2.97;;;2.58;;
5014;SDS011;2526;51.060;4.228;2023-06-14T04:39:17;3.88;;;1.95;;
5014;SDS011;2526;51.060;4.228;2023-06-14T04:41:43;3.65;;;2.30;;
5014;SDS011;2526;51.060;4.228;2023-06-14T04:44:08;3.00;;;1.95;;
5014;SDS011;2526;51.060;4.228;2023-06-14T04:46:35;4.10;;;2.03;;
5014;SDS011;2526;51.060;4.228;2023-06-14T04:49:09;7.45;;;2.17;;
5014;SDS011;2526;51.060;4.228;2023-06-14T04:51:35;5.10;;;2.38;;
5014;SDS011;2526;51.060;4.228;2023-06-14T04:54:02;4.80;;;2.15;;
5014;SDS011;2526;51.060;4.228;2023-06-14T04:56:29;8.52;;;3.03;;
5014;SDS011;2526;51.060;4.228;2023-06-14T04:58:55;4.53;;;2.92;;
5014;SDS011;2526;51.060;4.228;2023-06-14T05:01:22;3.80;;;2.88;;
5014;SDS011;2526;51.060;4.228;2023-06-14T05:03:48;8.02;;;3.33;;
5014;SDS011;2526;51.060;4.228;2023-06-14T05:06:14;4.68;;;2.80;;
5014;SDS011;2526;51.060;4.228;2023-06-14T05:08:41;6.28;;;2.20;;
5014;SDS011;2526;51.060;4.228;2023-06-14T05:11:06;3.92;;;2.40;;
5014;SDS011;2526;51.060;4.228;2023-06-14T05:13:31;2.92;;;1.65;;
5014;SDS011;2526;51.060;4.228;2023-06-14T05:15:58;2.72;;;2.08;;
5014;SDS011;2526;51.060;4.228;2023-06-14T05:18:24;4.32;;;2.78;;
5014;SDS011;2526;51.060;4.228;2023-06-14T05:20:50;10.57;;;2.50;;
5014;SDS011;2526;51.060;4.228;2023-06-14T05:23:16;2.63;;;2.42;;
5014;SDS011;2526;51.060;4.228;2023-06-14T05:25:45;6.88;;;2.78;;
5014;SDS011;2526;51.060;4.228;2023-06-14T05:28:10;2.88;;;1.50;;
5014;SDS011;2526;51.060;4.228;2023-06-14T05:30:37;3.55;;;2.42;;
5014;SDS011;2526;51.060;4.228;2023-06-14T05:33:02;3.33;;;1.70;;
5014;SDS011;2526;51.060;4.228;2023-06-14T05:35:29;5.57;;;2.60;;
5014;SDS011;2526;51.060;4.228;2023-06-14T05:37:54;5.05;;;2.53;;
5014;SDS011;2526;51.060;4.228;2023-06-14T05:40:20;4.03;;;2.28;;
5014;SDS011;2526;51.060;4.228;2023-06-14T05:42:45;4.63;;;2.95;;
5014;SDS011;2526;51.060;4.228;2023-06-14T05:45:11;3.10;;;2.33;;
5014;SDS011;2526;51.060;4.228;2023-06-14T05:47:36;3.25;;;2.53;;
5014;SDS011;2526;51.060;4.228;2023-06-14T05:50:02;3.45;;;2.45;;
5014;SDS011;2526;51.060;4.228;2023-06-14T05:52:27;4.75;;;3.65;;
5014;SDS011;2526;51.060;4.228;2023-06-14T05:54:53;5.85;;;2.97;;
5014;SDS011;2526;51.060;4.228;2023-06-14T05:57:19;5.97;;;3.03;;
5014;SDS011;2526;51.060;4.228;2023-06-14T05:59:44;5.28;;;2.05;;
5014;SDS011;2526;51.060;4.228;2023-06-14T06:02:10;7.05;;;3.72;;
5014;SDS011;2526;51.060;4.228;2023-06-14T06:04:35;4.95;;;3.28;;
5014;SDS011;2526;51.060;4.228;2023-06-14T06:07:01;5.28;;;3.22;;
5014;SDS011;2526;51.060;4.228;2023-06-14T06:09:26;5.53;;;2.83;;
5014;SDS011;2526;51.060;4.228;2023-06-14T06:11:52;4.30;;;3.20;;
5014;SDS011;2526;51.060;4.228;2023-06-14T06:14:17;7.63;;;3.25;;
5014;SDS011;2526;51.060;4.228;2023-06-14T06:16:43;7.18;;;3.05;;
5014;SDS011;2526;51.060;4.228;2023-06-14T06:19:08;10.80;;;2.47;;
5014;SDS011;2526;51.060;4.228;2023-06-14T06:21:34;13.50;;;3.28;;
5014;SDS011;2526;51.060;4.228;2023-06-14T06:23:59;4.00;;;3.17;;
5014;SDS011;2526;51.060;4.228;2023-06-14T06:26:28;3.63;;;2.63;;
5014;SDS011;2526;51.060;4.228;2023-06-14T06:28:54;3.17;;;2.38;;
5014;SDS011;2526;51.060;4.228;2023-06-14T06:31:19;8.25;;;3.70;;
5014;SDS011;2526;51.060;4.228;2023-06-14T06:33:45;3.78;;;2.75;;
5014;SDS011;2526;51.060;4.228;2023-06-14T06:36:10;8.70;;;3.72;;
5014;SDS011;2526;51.060;4.228;2023-06-14T06:38:36;4.63;;;3.55;;
5014;SDS011;2526;51.060;4.228;2023-06-14T06:41:01;3.97;;;2.45;;
5014;SDS011;2526;51.060;4.228;2023-06-14T06:43:27;5.90;;;2.50;;
5014;SDS011;2526;51.060;4.228;2023-06-14T06:45:52;11.57;;;3.80;;
5014;SDS011;2526;51.060;4.228;2023-06-14T06:48:18;5.72;;;3.03;;
5014;SDS011;2526;51.060;4.228;2023-06-14T06:50:43;8.13;;;3.25;;
5014;SDS011;2526;51.060;4.228;2023-06-14T06:53:08;5.30;;;2.60;;
5014;SDS011;2526;51.060;4.228;2023-06-14T06:55:34;7.53;;;2.22;;
5014;SDS011;2526;51.060;4.228;2023-06-14T06:57:59;3.80;;;3.40;;
5014;SDS011;2526;51.060;4.228;2023-06-14T07:00:25;7.93;;;1.98;;
5014;SDS011;2526;51.060;4.228;2023-06-14T07:02:51;4.88;;;3.17;;
5014;SDS011;2526;51.060;4.228;2023-06-14T07:05:17;8.00;;;2.88;;
5014;SDS011;2526;51.060;4.228;2023-06-14T07:07:43;6.18;;;3.38;;
5014;SDS011;2526;51.060;4.228;2023-06-14T07:10:08;6.90;;;2.75;;
5014;SDS011;2526;51.060;4.228;2023-06-14T07:12:34;4.40;;;2.80;;
5014;SDS011;2526;51.060;4.228;2023-06-14T07:15:04;6.40;;;3.35;;
5014;SDS011;2526;51.060;4.228;2023-06-14T07:17:30;6.22;;;3.08;;
5014;SDS011;2526;51.060;4.228;2023-06-14T07:19:55;3.83;;;3.17;;
5014;SDS011;2526;51.060;4.228;2023-06-14T07:22:21;13.35;;;4.93;;
5014;SDS011;2526;51.060;4.228;2023-06-14T07:24:46;4.35;;;2.63;;
5014;SDS011;2526;51.060;4.228;2023-06-14T07:27:12;4.78;;;3.25;;
5014;SDS011;2526;51.060;4.228;2023-06-14T07:29:38;18.77;;;3.80;;
5014;SDS011;2526;51.060;4.228;2023-06-14T07:32:04;5.20;;;2.65;;
5014;SDS011;2526;51.060;4.228;2023-06-14T07:34:29;2.42;;;1.95;;
5014;SDS011;2526;51.060;4.228;2023-06-14T07:36:55;4.40;;;2.85;;
5014;SDS011;2526;51.060;4.228;2023-06-14T07:39:20;4.00;;;2.08;;
5014;SDS011;2526;51.060;4.228;2023-06-14T07:41:46;5.20;;;2.95;;
5014;SDS011;2526;51.060;4.228;2023-06-14T07:44:11;9.23;;;2.35;;
5014;SDS011;2526;51.060;4.228;2023-06-14T07:46:37;3.53;;;2.60;;
5014;SDS011;2526;51.060;4.228;2023-06-14T07:49:03;4.80;;;2.92;;
5014;SDS011;2526;51.060;4.228;2023-06-14T07:51:28;4.60;;;2.33;;
5014;SDS011;2526;51.060;4.228;2023-06-14T07:53:54;3.67;;;2.63;;
5014;SDS011;2526;51.060;4.228;2023-06-14T07:56:20;8.10;;;2.42;;
5014;SDS011;2526;51.060;4.228;2023-06-14T07:58:45;3.78;;;2.45;;
5014;SDS011;2526;51.060;4.228;2023-06-14T08:01:11;4.47;;;2.58;;
5014;SDS011;2526;51.060;4.228;2023-06-14T08:03:36;6.43;;;3.13;;
5014;SDS011;2526;51.060;4.228;2023-06-14T08:06:02;3.60;;;2.85;;
5014;SDS011;2526;51.060;4.228;2023-06-14T08:08:27;4.68;;;3.25;;
5014;SDS011;2526;51.060;4.228;2023-06-14T08:10:53;4.07;;;2.83;;
5014;SDS011;2526;51.060;4.228;2023-06-14T08:13:18;3.58;;;2.70;;
5014;SDS011;2526;51.060;4.228;2023-06-14T08:15:44;5.45;;;2.65;;
5014;SDS011;2526;51.060;4.228;2023-06-14T08:18:09;5.40;;;3.00;;
5014;SDS011;2526;51.060;4.228;2023-06-14T08:20:35;2.60;;;1.95;;
5014;SDS011;2526;51.060;4.228;2023-06-14T08:23:01;4.60;;;3.05;;
5014;SDS011;2526;51.060;4.228;2023-06-14T08:25:27;7.13;;;2.60;;
5014;SDS011;2526;51.060;4.228;2023-06-14T08:27:52;5.28;;;2.10;;
5014;SDS011;2526;51.060;4.228;2023-06-14T08:30:17;6.38;;;2.60;;
5014;SDS011;2526;51.060;4.228;2023-06-14T08:32:43;6.47;;;3.00;;
5014;SDS011;2526;51.060;4.228;2023-06-14T08:35:09;3.10;;;2.50;;
5014;SDS011;2526;51.060;4.228;2023-06-14T08:37:38;4.63;;;2.78;;
5014;SDS011;2526;51.060;4.228;2023-06-14T08:40:03;12.15;;;2.40;;
5014;SDS011;2526;51.060;4.228;2023-06-14T08:42:30;2.30;;;1.77;;
5014;SDS011;2526;51.060;4.228;2023-06-14T08:44:56;4.80;;;2.55;;
5014;SDS011;2526;51.060;4.228;2023-06-14T08:47:22;4.63;;;1.80;;
5014;SDS011;2526;51.060;4.228;2023-06-14T08:49:50;3.85;;;2.90;;
5014;SDS011;2526;51.060;4.228;2023-06-14T08:52:18;3.45;;;2.38;;
5014;SDS011;2526;51.060;4.228;2023-06-14T08:54:45;3.30;;;2.10;;
5014;SDS011;2526;51.060;4.228;2023-06-14T08:57:14;2.42;;;2.00;;
5014;SDS011;2526;51.060;4.228;2023-06-14T08:59:43;3.20;;;2.30;;
5014;SDS011;2526;51.060;4.228;2023-06-14T09:02:10;6.97;;;2.95;;
5014;SDS011;2526;51.060;4.228;2023-06-14T09:04:38;4.60;;;2.55;;
5014;SDS011;2526;51.060;4.228;2023-06-14T09:07:05;7.93;;;2.38;;
5014;SDS011;2526;51.060;4.228;2023-06-14T09:09:31;4.07;;;2.40;;
5014;SDS011;2526;51.060;4.228;2023-06-14T09:11:57;6.93;;;3.53;;
5014;SDS011;2526;51.060;4.228;2023-06-14T09:14:25;3.78;;;2.50;;
5014;SDS011;2526;51.060;4.228;2023-06-14T09:16:54;3.47;;;2.17;;
5014;SDS011;2526;51.060;4.228;2023-06-14T09:19:22;4.03;;;2.53;;
5014;SDS011;2526;51.060;4.228;2023-06-14T09:21:49;4.22;;;1.98;;
5014;SDS011;2526;51.060;4.228;2023-06-14T09:24:14;9.48;;;3.17;;
5014;SDS011;2526;51.060;4.228;2023-06-14T09:26:41;4.45;;;3.25;;
5014;SDS011;2526;51.060;4.228;2023-06-14T09:29:06;3.88;;;2.90;;
5014;SDS011;2526;51.060;4.228;2023-06-14T09:31:32;7.55;;;3.10;;
5014;SDS011;2526;51.060;4.228;2023-06-14T09:33:58;4.82;;;3.00;;
5014;SDS011;2526;51.060;4.228;2023-06-14T09:36:24;5.15;;;2.30;;
5014;SDS011;2526;51.060;4.228;2023-06-14T09:38:54;4.78;;;2.60;;
5014;SDS011;2526;51.060;4.228;2023-06-14T09:41:19;3.53;;;2.22;;
5014;SDS011;2526;51.060;4.228;2023-06-14T09:43:46;6.50;;;2.95;;
5014;SDS011;2526;51.060;4.228;2023-06-14T09:46:12;4.88;;;3.08;;
5014;SDS011;2526;51.060;4.228;2023-06-14T09:48:38;6.60;;;3.00;;
5014;SDS011;2526;51.060;4.228;2023-06-14T09:51:09;6.20;;;2.25;;
5014;SDS011;2526;51.060;4.228;2023-06-14T09:53:34;5.13;;;2.85;;
5014;SDS011;2526;51.060;4.228;2023-06-14T09:56:01;3.80;;;2.30;;
5014;SDS011;2526;51.060;4.228;2023-06-14T09:58:27;9.63;;;3.05;;
5014;SDS011;2526;51.060;4.228;2023-06-14T10:00:53;4.55;;;2.70;;
5014;SDS011;2526;51.060;4.228;2023-06-14T10:03:28;5.30;;;2.80;;
5014;SDS011;2526;51.060;4.228;2023-06-14T10:05:54;5.32;;;3.13;;
5014;SDS011;2526;51.060;4.228;2023-06-14T10:08:23;13.32;;;2.83;;
5014;SDS011;2526;51.060;4.228;2023-06-14T10:10:51;2.17;;;1.75;;
5014;SDS011;2526;51.060;4.228;2023-06-14T10:13:16;8.55;;;2.95;;
5014;SDS011;2526;51.060;4.228;2023-06-14T10:15:51;3.45;;;2.08;;
5014;SDS011;2526;51.060;4.228;2023-06-14T10:20:50;3.80;;;1.90;;
5014;SDS011;2526;51.060;4.228;2023-06-14T10:23:18;4.20;;;2.22;;
5014;SDS011;2526;51.060;4.228;2023-06-14T10:25:44;5.80;;;2.80;;
5014;SDS011;2526;51.060;4.228;2023-06-14T10:28:16;2.65;;;1.83;;
5014;SDS011;2526;51.060;4.228;2023-06-14T10:33:26;4.85;;;2.38;;
5014;SDS011;2526;51.060;4.228;2023-06-14T10:36:06;10.07;;;2.08;;
5014;SDS011;2526;51.060;4.228;2023-06-14T10:38:32;3.05;;;2.13;;
5014;SDS011;2526;51.060;4.228;2023-06-14T10:40:58;2.60;;;1.83;;
5014;SDS011;2526;51.060;4.228;2023-06-14T10:43:24;8.45;;;2.05;;
5014;SDS011;2526;51.060;4.228;2023-06-14T10:48:34;3.10;;;2.15;;
5014;SDS011;2526;51.060;4.228;2023-06-14T10:51:05;2.80;;;2.42;;
5014;SDS011;2526;51.060;4.228;2023-06-14T10:53:38;2.42;;;2.22;;
5014;SDS011;2526;51.060;4.228;2023-06-14T10:56:07;4.10;;;2.45;;
5014;SDS011;2526;51.060;4.228;2023-06-14T10:58:33;5.63;;;1.95;;
5014;SDS011;2526;51.060;4.228;2023-06-14T11:00:58;6.35;;;1.90;;
5014;SDS011;2526;51.060;4.228;2023-06-14T11:05:51;7.28;;;2.08;;
5014;SDS011;2526;51.060;4.228;2023-06-14T11:11:05;2.35;;;2.05;;
5014;SDS011;2526;51.060;4.228;2023-06-14T11:13:31;4.72;;;2.17;;
5014;SDS011;2526;51.060;4.228;2023-06-14T11:15:57;1.38;;;1.25;;
5014;SDS011;2526;51.060;4.228;2023-06-14T11:18:23;4.50;;;1.77;;
5014;SDS011;2526;51.060;4.228;2023-06-14T11:20:55;5.40;;;1.98;;
5014;SDS011;2526;51.060;4.228;2023-06-14T11:23:21;3.22;;;1.90;;
5014;SDS011;2526;51.060;4.228;2023-06-14T11:25:50;3.97;;;1.77;;
5014;SDS011;2526;51.060;4.228;2023-06-14T11:28:16;7.53;;;1.88;;
5014;SDS011;2526;51.060;4.228;2023-06-14T11:30:42;5.80;;;2.55;;
5014;SDS011;2526;51.060;4.228;2023-06-14T11:33:09;4.50;;;2.42;;
5014;SDS011;2526;51.060;4.228;2023-06-14T11:35:35;2.40;;;1.65;;
5014;SDS011;2526;51.060;4.228;2023-06-14T11:38:01;5.55;;;2.80;;
5014;SDS011;2526;51.060;4.228;2023-06-14T11:40:27;4.05;;;2.20;;
5014;SDS011;2526;51.060;4.228;2023-06-14T11:43:00;1.83;;;1.35;;
5014;SDS011;2526;51.060;4.228;2023-06-14T11:45:25;4.45;;;2.55;;
5014;SDS011;2526;51.060;4.228;2023-06-14T11:47:53;4.50;;;2.75;;
5014;SDS011;2526;51.060;4.228;2023-06-14T11:50:20;5.93;;;1.95;;
5014;SDS011;2526;51.060;4.228;2023-06-14T11:52:51;4.20;;;1.33;;
5014;SDS011;2526;51.060;4.228;2023-06-14T11:55:17;3.13;;;1.83;;
5014;SDS011;2526;51.060;4.228;2023-06-14T11:57:42;2.33;;;1.88;;
5014;SDS011;2526;51.060;4.228;2023-06-14T12:00:08;5.13;;;2.33;;
5014;SDS011;2526;51.060;4.228;2023-06-14T12:02:37;2.10;;;1.60;;
5014;SDS011;2526;51.060;4.228;2023-06-14T12:05:04;4.85;;;2.03;;
5014;SDS011;2526;51.060;4.228;2023-06-14T12:07:30;5.43;;;2.45;;
5014;SDS011;2526;51.060;4.228;2023-06-14T12:12:22;2.20;;;1.42;;
5014;SDS011;2526;51.060;4.228;2023-06-14T12:14:47;3.30;;;1.80;;
5014;SDS011;2526;51.060;4.228;2023-06-14T12:17:13;2.63;;;1.42;;
5014;SDS011;2526;51.060;4.228;2023-06-14T12:19:42;2.70;;;1.63;;
5014;SDS011;2526;51.060;4.228;2023-06-14T12:22:09;1.73;;;1.30;;
5014;SDS011;2526;51.060;4.228;2023-06-14T12:24:34;6.90;;;2.92;;
5014;SDS011;2526;51.060;4.228;2023-06-14T12:27:00;7.85;;;1.92;;
5014;SDS011;2526;51.060;4.228;2023-06-14T12:29:28;4.20;;;2.17;;
5014;SDS011;2526;51.060;4.228;2023-06-14T12:31:54;2.45;;;1.75;;
5014;SDS011;2526;51.060;4.228;2023-06-14T12:34:22;1.55;;;1.38;;
5014;SDS011;2526;51.060;4.228;2023-06-14T12:36:48;3.05;;;1.77;;
5014;SDS011;2526;51.060;4.228;2023-06-14T12:39:15;1.73;;;1.38;;
5014;SDS011;2526;51.060;4.228;2023-06-14T12:41:40;1.73;;;1.55;;
5014;SDS011;2526;51.060;4.228;2023-06-14T12:44:08;2.35;;;1.50;;
5014;SDS011;2526;51.060;4.228;2023-06-14T12:46:34;2.08;;;1.52;;
5014;SDS011;2526;51.060;4.228;2023-06-14T12:49:00;9.48;;;2.17;;
5014;SDS011;2526;51.060;4.228;2023-06-14T12:51:26;1.13;;;1.02;;
5014;SDS011;2526;51.060;4.228;2023-06-14T12:53:51;4.30;;;1.77;;
5014;SDS011;2526;51.060;4.228;2023-06-14T12:56:17;1.77;;;1.52;;
5014;SDS011;2526;51.060;4.228;2023-06-14T12:58:43;2.53;;;1.58;;
5014;SDS011;2526;51.060;4.228;2023-06-14T13:01:08;5.68;;;1.38;;
5014;SDS011;2526;51.060;4.228;2023-06-14T13:03:33;5.28;;;1.60;;
5014;SDS011;2526;51.060;4.228;2023-06-14T13:05:59;2.25;;;1.45;;
5014;SDS011;2526;51.060;4.228;2023-06-14T13:08:25;1.30;;;0.85;;
5014;SDS011;2526;51.060;4.228;2023-06-14T13:10:51;2.97;;;1.00;;
5014;SDS011;2526;51.060;4.228;2023-06-14T13:13:17;1.63;;;1.02;;
5014;SDS011;2526;51.060;4.228;2023-06-14T13:15:42;3.08;;;1.42;;
5014;SDS011;2526;51.060;4.228;2023-06-14T13:18:08;2.40;;;1.63;;
5014;SDS011;2526;51.060;4.228;2023-06-14T13:20:34;2.47;;;1.40;;
5014;SDS011;2526;51.060;4.228;2023-06-14T13:23:00;2.90;;;1.38;;
5014;SDS011;2526;51.060;4.228;2023-06-14T13:25:25;4.88;;;1.52;;
5014;SDS011;2526;51.060;4.228;2023-06-14T13:27:50;2.47;;;1.23;;
5014;SDS011;2526;51.060;4.228;2023-06-14T13:30:16;15.00;;;2.10;;
5014;SDS011;2526;51.060;4.228;2023-06-14T13:32:42;4.07;;;1.42;;
5014;SDS011;2526;51.060;4.228;2023-06-14T13:35:07;5.63;;;1.15;;
5014;SDS011;2526;51.060;4.228;2023-06-14T13:37:33;1.35;;;1.00;;
5014;SDS011;2526;51.060;4.228;2023-06-14T13:39:58;1.90;;;1.33;;
5014;SDS011;2526;51.060;4.228;2023-06-14T13:42:23;3.05;;;1.25;;
5014;SDS011;2526;51.060;4.228;2023-06-14T13:44:49;1.77;;;1.02;;
5014;SDS011;2526;51.060;4.228;2023-06-14T13:47:16;3.30;;;1.17;;
5014;SDS011;2526;51.060;4.228;2023-06-14T13:49:42;2.22;;;1.65;;
5014;SDS011;2526;51.060;4.228;2023-06-14T13:52:07;2.15;;;1.20;;
5014;SDS011;2526;51.060;4.228;2023-06-14T13:54:33;5.13;;;1.23;;
5014;SDS011;2526;51.060;4.228;2023-06-14T13:56:58;2.00;;;1.20;;
5014;SDS011;2526;51.060;4.228;2023-06-14T13:59:24;1.98;;;0.98;;
5014;SDS011;2526;51.060;4.228;2023-06-14T14:01:49;2.25;;;1.15;;
5014;SDS011;2526;51.060;4.228;2023-06-14T14:04:15;2.92;;;1.13;;
5014;SDS011;2526;51.060;4.228;2023-06-14T14:06:41;6.05;;;1.17;;
5014;SDS011;2526;51.060;4.228;2023-06-14T14:09:07;2.45;;;0.90;;
5014;SDS011;2526;51.060;4.228;2023-06-14T14:11:33;1.40;;;0.90;;
5014;SDS011;2526;51.060;4.228;2023-06-14T14:13:58;0.65;;;0.65;;
5014;SDS011;2526;51.060;4.228;2023-06-14T14:16:24;0.80;;;0.60;;
5014;SDS011;2526;51.060;4.228;2023-06-14T14:18:50;1.52;;;0.70;;
5014;SDS011;2526;51.060;4.228;2023-06-14T14:21:15;2.42;;;0.38;;
5014;SDS011;2526;51.060;4.228;2023-06-14T14:23:41;2.78;;;0.80;;
5014;SDS011;2526;51.060;4.228;2023-06-14T14:26:06;3.42;;;1.05;;
5014;SDS011;2526;51.060;4.228;2023-06-14T14:28:32;3.72;;;0.70;;
5014;SDS011;2526;51.060;4.228;2023-06-14T14:31:01;1.08;;;0.50;;
5014;SDS011;2526;51.060;4.228;2023-06-14T14:33:26;1.35;;;0.70;;
5014;SDS011;2526;51.060;4.228;2023-06-14T14:35:52;2.13;;;0.98;;
5014;SDS011;2526;51.060;4.228;2023-06-14T14:38:17;1.63;;;1.33;;
5014;SDS011;2526;51.060;4.228;2023-06-14T14:40:43;1.60;;;0.90;;
5014;SDS011;2526;51.060;4.228;2023-06-14T14:43:09;1.42;;;0.77;;
5014;SDS011;2526;51.060;4.228;2023-06-14T14:45:34;0.73;;;0.68;;
5014;SDS011;2526;51.060;4.228;2023-06-14T14:48:00;1.13;;;0.75;;
5014;SDS011;2526;51.060;4.228;2023-06-14T14:50:26;1.20;;;0.70;;
5014;SDS011;2526;51.060;4.228;2023-06-14T14:52:51;1.25;;;0.65;;
5014;SDS011;2526;51.060;4.228;2023-06-14T14:55:17;1.30;;;0.30;;
5014;SDS011;2526;51.060;4.228;2023-06-14T14:57:42;0.80;;;0.70;;
5014;SDS011;2526;51.060;4.228;2023-06-14T15:00:08;7.15;;;0.85;;
5014;SDS011;2526;51.060;4.228;2023-06-14T15:02:34;1.55;;;0.85;;
5014;SDS011;2526;51.060;4.228;2023-06-14T15:05:00;3.92;;;0.90;;
5014;SDS011;2526;51.060;4.228;2023-06-14T15:07:30;0.60;;;0.60;;
5014;SDS011;2526;51.060;4.228;2023-06-14T15:09:55;0.77;;;0.40;;
5014;SDS011;2526;51.060;4.228;2023-06-14T15:12:21;0.75;;;0.65;;
5014;SDS011;2526;51.060;4.228;2023-06-14T15:14:51;0.90;;;0.60;;
5014;SDS011;2526;51.060;4.228;2023-06-14T15:17:20;0.77;;;0.45;;
5014;SDS011;2526;51.060;4.228;2023-06-14T15:19:45;1.33;;;0.90;;
5014;SDS011;2526;51.060;4.228;2023-06-14T15:22:11;1.38;;;0.70;;
5014;SDS011;2526;51.060;4.228;2023-06-14T15:24:37;0.90;;;0.63;;
5014;SDS011;2526;51.060;4.228;2023-06-14T15:27:02;4.95;;;1.08;;